CheckWX is a tool to help pilots better visualize weather data.  It is not intended as a substitute for an official pre-flight weather briefing.

22:11:59 UTC

KIWD METAR
Gogebic-Iron County Airport
Ironwood, Michigan, USA
Current

16 mins ago

KIWD 192156Z AUTO 21006KT 10SM CLR 12/09 A2964 RMK AO2 SLP042 T01220089
Observed
Oct-19 @ 21:56 UTC
Wind
  • 210° at 6 KTS
Visibility
10 SM
Flight Rules
VFR
Cloud Levels
  • Clear skies
Temperature
12°C / 54°F
Dewpoint
C / 48°F
Humidity
82%
Altimeter
29.64" Hg
Pressure
1003.72 hPa
Previous

1 hour ago

KIWD 192056Z AUTO 21009KT 10SM FEW110 12/09 A2963 RMK AO2 SLP038 60005 T01170089 56008
Observed
Oct-19 @ 20:56 UTC
Wind
  • 210° at 9 KTS
Visibility
10 SM
Flight Rules
VFR
Cloud Levels
  • Few at 11,000' AGL
Temperature
12°C / 54°F
Dewpoint
C / 48°F
Humidity
82%
Altimeter
29.63" Hg
Pressure
1003.42 hPa
Previous

2 hours ago

KIWD 191956Z AUTO 21007KT 150V230 10SM BKN090 11/09 A2963 RMK AO2 RAE25 SLP038 P0000 T01110089
Observed
Oct-19 @ 19:56 UTC
Wind
  • 210° at 7 KTS
Visibility
10 SM
Flight Rules
VFR
Cloud Levels
  • Broken at 9,000' AGL
Temperature
11°C / 52°F
Dewpoint
C / 48°F
Humidity
88%
Altimeter
29.63" Hg
Pressure
1003.42 hPa
Current Rain
0.01"